Time,TemperatureF,DewpointF,PressureIn,WindDirection,WindDirectionDegrees,WindSpeedMPH,WindSpeedGustMPH,Humidity,HourlyPrecipIn,Conditions,Clouds,dailyrainin,SoftwareType,DateUTC
2013-07-23 00:01:00,70.3,69.1,29.86,NE,39,0.0,0.0,96,0.00,,,0.00,VWS V13.01,2013-07-23 05:01:00,
2013-07-23 00:06:00,70.3,69.1,29.86,NE,39,0.0,0.0,96,0.00,,,0.00,VWS V13.01,2013-07-23 05:06:00,
2013-07-23 00:11:00,70.1,68.9,29.86,NE,39,0.0,0.0,96,0.00,,,0.00,VWS V13.01,2013-07-23 05:11:00,
2013-07-23 00:16:00,70.1,68.9,29.83,NE,39,0.0,0.0,96,0.00,,,0.00,VWS V13.01,2013-07-23 05:16:00,
2013-07-23 00:21:00,70.1,68.9,29.83,NE,39,0.0,0.0,96,0.00,,,0.00,VWS V13.01,2013-07-23 05:21:00,
2013-07-23 00:26:00,70.0,68.8,29.83,NE,39,0.0,0.0,96,0.00,,,0.00,VWS V13.01,2013-07-23 05:26:00,
2013-07-23 00:31:00,70.0,68.8,29.86,NE,39,0.0,0.0,96,0.00,,,0.00,VWS V13.01,2013-07-23 05:31:00,
2013-07-23 00:36:00,70.0,68.8,29.86,NE,39,0.0,0.0,96,0.00,,,0.00,VWS V13.01,2013-07-23 05:36:00,
2013-07-23 00:41:00,70.0,68.8,29.86,NE,39,0.0,0.0,96,0.00,,,0.00,VWS V13.01,2013-07-23 05:41:00,
2013-07-23 00:46:00,70.0,69.1,29.86,NE,39,0.0,0.0,97,0.00,,,0.00,VWS V13.01,2013-07-23 05:46:00,
2013-07-23 00:51:00,69.8,68.9,29.86,NE,39,0.0,0.0,97,0.00,,,0.00,VWS V13.01,2013-07-23 05:51:00,
2013-07-23 00:55:00,69.8,69.2,29.86,NE,39,0.0,0.0,98,0.00,,,0.00,VWS V13.01,2013-07-23 05:55:00,
2013-07-23 01:00:00,69.8,69.5,29.86,NE,39,0.0,0.0,99,0.00,,,0.00,VWS V13.01,2013-07-23 06:00:00,
2013-07-23 01:05:00,69.6,69.3,29.86,SSE,147,0.0,0.0,99,0.00,,,0.00,VWS V13.01,2013-07-23 06:05:00,
2013-07-23 01:10:00,69.6,69.3,29.86,NE,53,0.0,0.0,99,0.00,,,0.00,VWS V13.01,2013-07-23 06:10:00,
2013-07-23 01:15:00,69.6,69.6,29.86,NE,45,0.0,0.0,100,0.00,,,0.00,VWS V13.01,2013-07-23 06:15:00,
2013-07-23 01:20:00,69.4,69.4,29.86,South,171,2.2,2.7,100,0.00,,,0.00,VWS V13.01,2013-07-23 06:20:00,
2013-07-23 01:25:00,69.4,69.4,29.86,South,170,0.0,0.0,100,0.00,,,0.00,VWS V13.01,2013-07-23 06:25:00,
2013-07-23 01:30:00,69.4,69.4,29.86,SSW,204,0.0,0.0,100,0.00,,,0.00,VWS V13.01,2013-07-23 06:30:00,
2013-07-23 01:35:00,69.4,69.4,29.86,SSW,204,0.0,0.0,100,0.00,,,0.00,VWS V13.01,2013-07-23 06:35:00,
2013-07-23 01:40:00,69.4,69.4,29.86,SSW,204,0.0,0.0,100,0.00,,,0.00,VWS V13.01,2013-07-23 06:40:00,
2013-07-23 01:45:00,69.4,69.4,29.86,SSW,204,0.0,0.0,100,0.00,,,0.00,VWS V13.01,2013-07-23 06:45:00,
2013-07-23 01:50:00,69.4,69.4,29.86,SSW,204,0.0,0.0,100,0.00,,,0.00,VWS V13.01,2013-07-23 06:50:00,
2013-07-23 01:55:00,69.4,69.4,29.86,SSW,204,0.0,0.0,100,0.00,,,0.00,VWS V13.01,2013-07-23 06:55:00,
2013-07-23 02:00:00,69.4,69.4,29.86,SSW,204,0.0,0.0,100,0.00,,,0.00,VWS V13.01,2013-07-23 07:00:00,
2013-07-23 02:05:00,69.4,69.4,29.86,SSW,204,0.0,0.0,100,0.00,,,0.00,VWS V13.01,2013-07-23 07:05:00,
2013-07-23 02:10:00,69.4,69.4,29.86,South,178,0.0,0.0,100,0.00,,,0.00,VWS V13.01,2013-07-23 07:10:00,
2013-07-23 02:15:00,69.6,69.6,29.86,South,174,0.0,0.0,100,0.00,,,0.00,VWS V13.01,2013-07-23 07:15:00,
2013-07-23 02:20:00,69.6,69.6,29.86,West,262,0.0,0.0,100,0.00,,,0.00,VWS V13.01,2013-07-23 07:20:00,
2013-07-23 02:25:00,69.8,69.8,29.86,SE,131,0.0,0.0,100,0.00,,,0.00,VWS V13.01,2013-07-23 07:25:00,
2013-07-23 02:30:00,69.8,69.8,29.86,East,87,0.0,0.0,100,0.00,,,0.00,VWS V13.01,2013-07-23 07:30:00,
2013-07-23 02:35:00,70.0,70.0,29.86,ENE,64,0.0,0.0,100,0.00,,,0.00,VWS V13.01,2013-07-23 07:35:00,
2013-07-23 02:40:00,69.8,69.8,29.86,ENE,64,0.0,0.0,100,0.00,,,0.00,VWS V13.01,2013-07-23 07:40:00,
2013-07-23 02:45:00,69.8,69.8,29.86,ENE,65,0.0,0.0,100,0.00,,,0.00,VWS V13.01,2013-07-23 07:45:00,
2013-07-23 02:50:00,70.0,70.0,29.86,ENE,64,0.0,0.0,100,0.00,,,0.00,VWS V13.01,2013-07-23 07:50:00,
2013-07-23 02:55:00,70.0,70.0,29.86,NNE,33,0.0,0.0,100,0.00,,,0.00,VWS V13.01,2013-07-23 07:55:00,
2013-07-23 03:00:00,70.0,70.0,29.86,NNE,33,0.0,0.0,100,0.00,,,0.00,VWS V13.01,2013-07-23 08:00:00,
2013-07-23 03:05:00,70.1,70.1,29.86,NNE,33,0.0,0.0,100,0.00,,,0.00,VWS V13.01,2013-07-23 08:05:00,
2013-07-23 03:10:00,70.1,70.1,29.86,NNE,33,0.0,0.0,100,0.00,,,0.00,VWS V13.01,2013-07-23 08:10:00,
2013-07-23 03:15:00,70.1,70.1,29.86,NNE,33,0.0,0.0,100,0.00,,,0.00,VWS V13.01,2013-07-23 08:15:00,
2013-07-23 03:20:00,70.1,70.1,29.86,NNE,33,0.0,0.0,100,0.00,,,0.00,VWS V13.01,2013-07-23 08:20:00,
2013-07-23 03:25:00,70.1,70.1,29.86,NNE,33,0.0,0.0,100,0.00,,,0.00,VWS V13.01,2013-07-23 08:25:00,
2013-07-23 03:30:00,70.1,70.1,29.86,NNE,33,0.0,0.0,100,0.00,,,0.00,VWS V13.01,2013-07-23 08:30:00,
2013-07-23 03:35:00,70.1,70.1,29.86,NNE,33,0.0,0.0,100,0.00,,,0.00,VWS V13.01,2013-07-23 08:35:00,
2013-07-23 03:40:00,70.0,70.0,29.86,NNE,33,0.0,0.0,100,0.00,,,0.00,VWS V13.01,2013-07-23 08:40:00,
2013-07-23 03:45:00,70.0,70.0,29.86,NNE,33,0.0,0.0,100,0.00,,,0.00,VWS V13.01,2013-07-23 08:45:00,
2013-07-23 03:50:00,70.0,70.0,29.86,NNE,33,0.0,0.0,100,0.00,,,0.00,VWS V13.01,2013-07-23 08:50:00,
2013-07-23 03:55:00,69.8,69.8,29.86,NNE,33,0.0,0.0,100,0.00,,,0.00,VWS V13.01,2013-07-23 08:55:00,
2013-07-23 04:00:00,69.8,69.8,29.86,NNE,33,0.0,0.0,100,0.00,,,0.00,VWS V13.01,2013-07-23 09:00:00,
2013-07-23 04:05:00,69.8,69.8,29.86,NNE,33,0.0,0.0,100,0.00,,,0.00,VWS V13.01,2013-07-23 09:05:00,
2013-07-23 04:10:00,69.6,69.6,29.86,NE,38,0.0,0.0,100,0.00,,,0.00,VWS V13.01,2013-07-23 09:10:00,
2013-07-23 04:15:00,69.6,69.6,29.86,NE,38,0.0,0.0,100,0.00,,,0.00,VWS V13.01,2013-07-23 09:15:00,
2013-07-23 04:20:00,69.6,69.6,29.86,NE,38,0.0,0.0,100,0.00,,,0.00,VWS V13.01,2013-07-23 09:20:00,
2013-07-23 04:25:00,69.6,69.6,29.86,NE,38,0.0,0.0,100,0.00,,,0.00,VWS V13.01,2013-07-23 09:25:00,
2013-07-23 04:30:00,69.6,69.6,29.83,NE,38,0.0,0.0,100,0.00,,,0.00,VWS V13.01,2013-07-23 09:30:00,
2013-07-23 04:35:00,69.6,69.6,29.83,NE,38,0.0,0.0,100,0.00,,,0.00,VWS V13.01,2013-07-23 09:35:00,
2013-07-23 04:40:00,69.4,69.4,29.83,NE,38,0.0,0.0,100,0.00,,,0.00,VWS V13.01,2013-07-23 09:40:00,
2013-07-23 04:45:00,69.4,69.4,29.83,NE,38,0.0,0.0,100,0.00,,,0.00,VWS V13.01,2013-07-23 09:45:00,
2013-07-23 04:50:00,69.4,69.4,29.83,NE,38,0.0,0.0,100,0.00,,,0.00,VWS V13.01,2013-07-23 09:50:00,
2013-07-23 04:55:00,69.4,69.4,29.83,NE,38,0.0,0.0,100,0.00,,,0.00,VWS V13.01,2013-07-23 09:55:00,
2013-07-23 05:00:00,69.2,69.2,29.86,NE,38,0.0,0.0,100,0.00,,,0.00,VWS V13.01,2013-07-23 10:00:00,
2013-07-23 05:05:00,69.2,69.2,29.86,NE,38,0.0,0.0,100,0.00,,,0.00,VWS V13.01,2013-07-23 10:05:00,
2013-07-23 05:10:00,69.2,69.2,29.86,NE,38,0.0,0.0,100,0.00,,,0.00,VWS V13.01,2013-07-23 10:10:00,
2013-07-23 05:15:00,69.2,69.2,29.86,NE,38,0.0,0.0,100,0.00,,,0.00,VWS V13.01,2013-07-23 10:15:00,
2013-07-23 05:20:00,69.2,69.2,29.86,NE,38,0.0,0.0,100,0.00,,,0.00,VWS V13.01,2013-07-23 10:20:00,
2013-07-23 05:25:00,69.1,69.1,29.86,NE,38,0.0,0.0,100,0.00,,,0.00,VWS V13.01,2013-07-23 10:25:00,
2013-07-23 05:30:00,69.1,69.1,29.86,NE,38,0.0,0.0,100,0.00,,,0.00,VWS V13.01,2013-07-23 10:30:00,
2013-07-23 05:35:00,69.1,69.1,29.86,NE,38,0.0,0.0,100,0.00,,,0.00,VWS V13.01,2013-07-23 10:35:00,
2013-07-23 05:40:00,69.1,69.1,29.86,NE,38,0.0,0.0,100,0.00,,,0.00,VWS V13.01,2013-07-23 10:40:00,
2013-07-23 05:45:00,69.1,69.1,29.86,NE,38,0.0,0.0,100,0.00,,,0.00,VWS V13.01,2013-07-23 10:45:00,
2013-07-23 05:50:00,69.1,69.1,29.86,NE,38,0.0,0.0,100,0.00,,,0.00,VWS V13.01,2013-07-23 10:50:00,
2013-07-23 05:55:00,69.1,69.1,29.86,NE,38,0.0,0.0,100,0.00,,,0.00,VWS V13.01,2013-07-23 10:55:00,
2013-07-23 06:00:00,69.1,69.1,29.86,NE,38,0.0,0.0,100,0.00,,,0.00,VWS V13.01,2013-07-23 11:00:00,
2013-07-23 06:05:00,68.9,68.9,29.86,NE,38,0.0,0.0,100,0.00,,,0.00,VWS V13.01,2013-07-23 11:05:00,
2013-07-23 06:10:00,68.9,68.9,29.86,NE,38,0.0,0.0,100,0.00,,,0.00,VWS V13.01,2013-07-23 11:10:00,
2013-07-23 06:15:00,68.9,68.9,29.86,NE,38,0.0,0.0,100,0.00,,,0.00,VWS V13.01,2013-07-23 11:15:00,
2013-07-23 06:20:00,68.9,68.9,29.86,NE,38,0.0,0.0,100,0.00,,,0.00,VWS V13.01,2013-07-23 11:20:00,
2013-07-23 06:25:00,68.7,68.7,29.86,NE,38,0.0,0.0,100,0.00,,,0.00,VWS V13.01,2013-07-23 11:25:00,
2013-07-23 06:30:00,68.7,68.7,29.86,NE,38,0.0,0.0,100,0.00,,,0.00,VWS V13.01,2013-07-23 11:30:00,
2013-07-23 06:35:00,68.7,68.7,29.86,NE,38,0.0,0.0,100,0.00,,,0.00,VWS V13.01,2013-07-23 11:35:00,
2013-07-23 06:40:00,68.7,68.7,29.86,NE,38,0.0,0.0,100,0.00,,,0.00,VWS V13.01,2013-07-23 11:40:00,
2013-07-23 06:45:00,68.7,68.7,29.86,NE,38,0.0,0.0,100,0.00,,,0.00,VWS V13.01,2013-07-23 11:45:00,
2013-07-23 06:50:00,68.7,68.7,29.86,NE,38,0.0,0.0,100,0.00,,,0.00,VWS V13.01,2013-07-23 11:50:00,
2013-07-23 06:55:00,68.9,68.9,29.86,NE,38,0.0,0.0,100,0.00,,,0.00,VWS V13.01,2013-07-23 11:55:00,
2013-07-23 07:00:00,68.9,68.9,29.86,NE,38,0.0,0.0,100,0.00,,,0.00,VWS V13.01,2013-07-23 12:00:00,
2013-07-23 07:05:00,69.1,69.1,29.86,NE,38,0.0,0.0,100,0.00,,,0.00,VWS V13.01,2013-07-23 12:05:00,
2013-07-23 07:10:00,69.1,69.1,29.86,NE,38,0.0,0.0,100,0.00,,,0.00,VWS V13.01,2013-07-23 12:10:00,
2013-07-23 07:15:00,69.1,69.1,29.86,NE,38,0.0,0.0,100,0.00,,,0.00,VWS V13.01,2013-07-23 12:15:00,
2013-07-23 07:20:00,69.1,69.1,29.86,NE,38,0.0,0.0,100,0.00,,,0.00,VWS V13.01,2013-07-23 12:20:00,
2013-07-23 07:25:00,69.4,69.4,29.86,NE,38,0.0,0.0,100,0.00,,,0.00,VWS V13.01,2013-07-23 12:25:00,
2013-07-23 07:30:00,69.6,69.6,29.89,NE,38,0.0,0.0,100,0.00,,,0.00,VWS V13.01,2013-07-23 12:30:00,
2013-07-23 07:35:00,69.8,69.8,29.89,NE,38,0.0,0.0,100,0.00,,,0.00,VWS V13.01,2013-07-23 12:35:00,
2013-07-23 07:40:00,70.1,70.1,29.89,NE,38,0.0,0.0,100,0.00,,,0.00,VWS V13.01,2013-07-23 12:40:00,
2013-07-23 07:45:00,70.3,70.3,29.89,NE,38,0.0,0.0,100,0.00,,,0.00,VWS V13.01,2013-07-23 12:45:00,
2013-07-23 07:50:00,70.5,70.5,29.89,NE,38,0.0,0.0,100,0.00,,,0.00,VWS V13.01,2013-07-23 12:50:00,
2013-07-23 07:54:00,70.9,70.9,29.89,NE,38,0.0,0.0,100,0.00,,,0.00,VWS V13.01,2013-07-23 12:54:00,
2013-07-23 08:00:00,71.0,71.0,29.89,NE,38,0.0,0.0,100,0.00,,,0.00,VWS V13.01,2013-07-23 13:00:00,
2013-07-23 08:04:00,71.6,71.6,29.89,SSE,167,0.0,0.0,100,0.00,,,0.00,VWS V13.01,2013-07-23 13:04:00,
2013-07-23 08:09:00,71.9,71.9,29.89,South,175,2.7,2.7,100,0.00,,,0.00,VWS V13.01,2013-07-23 13:09:00,
2013-07-23 08:14:00,72.3,72.3,29.89,South,169,2.2,2.2,100,0.00,,,0.00,VWS V13.01,2013-07-23 13:14:00,
2013-07-23 08:19:00,72.8,72.8,29.89,WSW,240,0.0,0.0,100,0.00,,,0.00,VWS V13.01,2013-07-23 13:19:00,
2013-07-23 08:24:00,73.4,73.4,29.89,WSW,243,0.0,0.0,100,0.00,,,0.00,VWS V13.01,2013-07-23 13:24:00,
2013-07-23 08:29:00,73.9,73.9,29.89,South,184,0.0,0.0,100,0.00,,,0.00,VWS V13.01,2013-07-23 13:29:00,
2013-07-23 08:34:00,74.3,74.3,29.89,WSW,238,0.0,0.0,100,0.00,,,0.00,VWS V13.01,2013-07-23 13:34:00,
2013-07-23 08:39:00,74.5,74.5,29.89,West,260,0.0,0.0,100,0.00,,,0.00,VWS V13.01,2013-07-23 13:39:00,
2013-07-23 08:44:00,75.0,75.0,29.89,West,260,0.0,0.0,100,0.00,,,0.00,VWS V13.01,2013-07-23 13:44:00,
2013-07-23 08:49:00,76.1,76.1,29.89,West,260,0.0,0.0,100,0.00,,,0.00,VWS V13.01,2013-07-23 13:49:00,
2013-07-23 08:54:00,77.2,77.2,29.89,West,259,0.0,0.0,100,0.00,,,0.00,VWS V13.01,2013-07-23 13:54:00,
2013-07-23 08:59:00,77.7,77.1,29.89,South,191,0.0,0.0,98,0.00,,,0.00,VWS V13.01,2013-07-23 13:59:00,
2013-07-23 09:04:00,77.7,75.2,29.89,South,190,0.0,0.0,92,0.00,,,0.00,VWS V13.01,2013-07-23 14:04:00,
2013-07-23 09:09:00,78.4,74.6,29.89,SSE,150,0.0,0.0,88,0.00,,,0.00,VWS V13.01,2013-07-23 14:09:00,
2013-07-23 09:14:00,79.0,71.5,29.89,ENE,67,3.1,3.1,78,0.00,,,0.00,VWS V13.01,2013-07-23 14:14:00,
2013-07-23 09:19:00,79.9,71.6,29.89,SSE,156,0.0,2.2,76,0.00,,,0.00,VWS V13.01,2013-07-23 14:19:00,
2013-07-23 09:24:00,80.6,69.9,29.89,WSW,258,0.0,2.2,70,0.00,,,0.00,VWS V13.01,2013-07-23 14:24:00,
2013-07-23 09:29:00,81.3,70.6,29.89,SSE,165,4.0,4.0,70,0.00,,,0.00,VWS V13.01,2013-07-23 14:29:00,
2013-07-23 09:34:00,81.1,68.7,29.89,West,259,2.7,3.1,66,0.00,,,0.00,VWS V13.01,2013-07-23 14:34:00,
2013-07-23 09:39:00,80.9,68.5,29.89,SW,233,2.7,2.7,66,0.00,,,0.00,VWS V13.01,2013-07-23 14:39:00,
2013-07-23 09:44:00,81.1,69.6,29.89,SSW,203,3.1,4.0,68,0.00,,,0.00,VWS V13.01,2013-07-23 14:44:00,
2013-07-23 09:49:00,81.1,70.0,29.89,SSW,206,4.9,5.4,69,0.00,,,0.00,VWS V13.01,2013-07-23 14:49:00,
2013-07-23 09:54:00,81.5,70.3,29.89,SW,223,2.7,3.6,69,0.00,,,0.00,VWS V13.01,2013-07-23 14:54:00,
2013-07-23 09:59:00,81.8,69.8,29.89,SSW,212,3.6,5.4,67,0.00,,,0.00,VWS V13.01,2013-07-23 14:59:00,
2013-07-23 10:04:00,82.2,69.7,29.89,SW,236,3.1,5.8,66,0.00,,,0.00,VWS V13.01,2013-07-23 15:04:00,
2013-07-23 10:09:00,82.9,69.0,29.89,WSW,243,6.3,6.3,63,0.00,,,0.00,VWS V13.01,2013-07-23 15:09:00,
2013-07-23 10:14:00,83.5,70.0,29.89,SW,231,4.9,5.4,64,0.00,,,0.00,VWS V13.01,2013-07-23 15:14:00,
2013-07-23 10:19:00,83.6,69.2,29.89,WSW,237,5.8,6.3,62,0.00,,,0.00,VWS V13.01,2013-07-23 15:19:00,
2013-07-23 10:24:00,84.0,70.1,29.89,WSW,258,4.0,5.8,63,0.00,,,0.00,VWS V13.01,2013-07-23 15:24:00,
2013-07-23 10:29:00,84.4,69.9,29.89,WSW,248,4.0,4.9,62,0.00,,,0.00,VWS V13.01,2013-07-23 15:29:00,
2013-07-23 10:34:00,84.5,70.1,29.89,SSW,205,3.1,4.9,62,0.00,,,0.00,VWS V13.01,2013-07-23 15:34:00,
2013-07-23 10:39:00,84.9,69.0,29.89,South,185,4.0,6.3,59,0.00,,,0.00,VWS V13.01,2013-07-23 15:39:00,
2013-07-23 10:44:00,85.4,70.5,29.89,SSW,194,2.7,6.3,61,0.00,,,0.00,VWS V13.01,2013-07-23 15:44:00,
2013-07-23 10:49:00,85.6,70.2,29.89,WSW,239,5.8,5.8,60,0.00,,,0.00,VWS V13.01,2013-07-23 15:49:00,
2013-07-23 10:54:00,86.2,69.7,29.89,WSW,246,7.6,8.7,58,0.00,,,0.00,VWS V13.01,2013-07-23 15:54:00,
2013-07-23 10:59:00,86.3,70.3,29.89,WSW,242,4.0,4.0,59,0.00,,,0.00,VWS V13.01,2013-07-23 15:59:00,
2013-07-23 11:04:00,86.3,70.8,29.89,WSW,243,5.4,5.4,60,0.00,,,0.00,VWS V13.01,2013-07-23 16:04:00,
2013-07-23 11:09:00,86.5,70.0,29.89,SSE,162,7.6,7.6,58,0.00,,,0.00,VWS V13.01,2013-07-23 16:09:00,
2013-07-23 11:14:00,86.3,69.8,29.89,SSW,198,8.3,8.3,58,0.00,,,0.00,VWS V13.01,2013-07-23 16:14:00,
2013-07-23 11:19:00,86.5,71.0,29.89,SW,214,5.8,5.8,60,0.00,,,0.00,VWS V13.01,2013-07-23 16:19:00,
2013-07-23 11:24:00,86.7,71.2,29.89,SSW,194,6.3,6.3,60,0.00,,,0.00,VWS V13.01,2013-07-23 16:24:00,
2013-07-23 11:29:00,86.9,70.8,29.86,SSE,153,5.4,5.4,59,0.00,,,0.00,VWS V13.01,2013-07-23 16:29:00,
2013-07-23 11:34:00,87.2,70.2,29.86,SW,221,4.0,6.3,57,0.00,,,0.00,VWS V13.01,2013-07-23 16:34:00,
2013-07-23 11:39:00,87.2,70.2,29.86,SW,234,5.8,5.8,57,0.00,,,0.00,VWS V13.01,2013-07-23 16:39:00,
2013-07-23 11:44:00,87.4,70.3,29.86,South,181,6.3,8.7,57,0.00,,,0.00,VWS V13.01,2013-07-23 16:44:00,
2013-07-23 11:49:00,87.6,70.0,29.86,SW,215,5.8,5.8,56,0.00,,,0.00,VWS V13.01,2013-07-23 16:49:00,
2013-07-23 11:54:00,87.6,69.4,29.86,SE,129,4.0,4.9,55,0.00,,,0.00,VWS V13.01,2013-07-23 16:54:00,
2013-07-23 11:59:00,88.0,69.8,29.86,SW,235,4.0,4.0,55,0.00,,,0.00,VWS V13.01,2013-07-23 16:59:00,
2013-07-23 12:04:00,88.1,68.3,29.86,SW,224,8.3,8.3,52,0.00,,,0.00,VWS V13.01,2013-07-23 17:04:00,
2013-07-23 12:09:00,88.3,70.7,29.86,South,171,6.3,6.3,56,0.00,,,0.00,VWS V13.01,2013-07-23 17:09:00,
2013-07-23 12:14:00,88.7,70.4,29.86,SSW,209,3.1,3.1,55,0.00,,,0.00,VWS V13.01,2013-07-23 17:14:00,
2013-07-23 12:19:00,89.2,70.9,29.86,SW,221,6.3,6.3,55,0.00,,,0.00,VWS V13.01,2013-07-23 17:19:00,
2013-07-23 12:24:00,89.2,69.9,29.86,West,260,5.4,5.8,53,0.00,,,0.00,VWS V13.01,2013-07-23 17:24:00,
2013-07-23 12:29:00,89.2,70.9,29.86,SW,225,15.0,15.0,55,0.00,,,0.00,VWS V13.01,2013-07-23 17:29:00,
2013-07-23 12:34:00,89.2,69.3,29.86,SW,223,3.1,4.0,52,0.00,,,0.00,VWS V13.01,2013-07-23 17:34:00,
2013-07-23 12:39:00,89.8,69.8,29.86,WSW,237,5.4,5.4,52,0.00,,,0.00,VWS V13.01,2013-07-23 17:39:00,
2013-07-23 12:44:00,89.9,68.8,29.86,SSE,155,5.8,5.8,50,0.00,,,0.00,VWS V13.01,2013-07-23 17:44:00,
2013-07-23 12:49:00,89.9,68.8,29.86,WSW,242,8.1,8.1,50,0.00,,,0.00,VWS V13.01,2013-07-23 17:49:00,
2013-07-23 12:55:00,90.1,69.0,29.86,SW,224,6.3,6.3,50,0.00,,,0.00,VWS V13.01,2013-07-23 17:55:00,
2013-07-23 13:00:00,90.5,69.3,29.86,SW,215,7.6,7.6,50,0.00,,,0.00,VWS V13.01,2013-07-23 18:00:00,
2013-07-23 13:05:00,90.8,70.2,29.86,South,172,8.3,8.3,51,0.00,,,0.00,VWS V13.01,2013-07-23 18:05:00,
2013-07-23 13:10:00,91.2,70.0,29.86,South,184,6.3,6.3,50,0.00,,,0.00,VWS V13.01,2013-07-23 18:10:00,
2013-07-23 13:15:00,91.0,69.2,29.86,WSW,258,8.7,9.2,49,0.00,,,0.00,VWS V13.01,2013-07-23 18:15:00,
2013-07-23 13:21:00,90.8,70.2,29.86,WNW,303,3.6,4.0,51,0.00,,,0.00,VWS V13.01,2013-07-23 18:21:00,
2013-07-23 13:26:00,91.0,69.8,29.86,WSW,242,5.4,5.4,50,0.00,,,0.00,VWS V13.01,2013-07-23 18:26:00,
2013-07-23 13:31:00,91.4,70.7,29.83,SW,214,7.2,7.2,51,0.00,,,0.00,VWS V13.01,2013-07-23 18:31:00,
2013-07-23 13:36:00,91.7,70.5,29.83,South,172,3.6,5.4,50,0.00,,,0.00,VWS V13.01,2013-07-23 18:36:00,
2013-07-23 13:41:00,91.7,70.5,29.83,SSW,205,4.9,4.9,50,0.00,,,0.00,VWS V13.01,2013-07-23 18:41:00,
2013-07-23 13:46:00,91.9,70.0,29.83,SW,231,5.4,7.6,49,0.00,,,0.00,VWS V13.01,2013-07-23 18:46:00,
2013-07-23 13:51:00,92.1,70.2,29.83,WSW,257,6.3,7.6,49,0.00,,,0.00,VWS V13.01,2013-07-23 18:51:00,
2013-07-23 13:56:00,92.3,70.4,29.83,South,171,4.0,6.3,49,0.00,,,0.00,VWS V13.01,2013-07-23 18:56:00,
2013-07-23 14:01:00,92.5,70.5,29.83,WSW,244,5.8,5.8,49,0.00,,,0.00,VWS V13.01,2013-07-23 19:01:00,
2013-07-23 14:07:00,92.6,69.5,29.83,West,277,4.0,6.7,47,0.00,,,0.00,VWS V13.01,2013-07-23 19:07:00,
2013-07-23 14:12:00,93.2,70.6,29.83,WSW,249,5.4,5.4,48,0.00,,,0.00,VWS V13.01,2013-07-23 19:12:00,
2013-07-23 14:17:00,93.4,70.8,29.83,SW,223,5.4,5.4,48,0.00,,,0.00,VWS V13.01,2013-07-23 19:17:00,
2013-07-23 14:22:00,93.5,70.3,29.83,WSW,248,8.3,8.3,47,0.00,,,0.00,VWS V13.01,2013-07-23 19:22:00,
2013-07-23 14:27:00,93.5,70.3,29.83,SW,214,5.8,8.7,47,0.00,,,0.00,VWS V13.01,2013-07-23 19:27:00,
2013-07-23 14:32:00,93.9,70.6,29.80,SW,220,4.0,8.1,47,0.00,,,0.00,VWS V13.01,2013-07-23 19:32:00,
2013-07-23 14:37:00,93.9,70.6,29.80,WSW,238,5.4,5.4,47,0.00,,,0.00,VWS V13.01,2013-07-23 19:37:00,
2013-07-23 14:42:00,93.4,70.1,29.80,SW,222,5.8,6.3,47,0.00,,,0.00,VWS V13.01,2013-07-23 19:42:00,
2013-07-23 14:48:00,92.6,69.5,29.80,WSW,254,9.6,9.6,47,0.00,,,0.00,VWS V13.01,2013-07-23 19:48:00,
2013-07-23 14:53:00,92.1,69.0,29.80,SW,227,5.4,8.3,47,0.00,,,0.00,VWS V13.01,2013-07-23 19:53:00,
2013-07-23 14:58:00,91.7,68.7,29.80,SW,228,5.8,7.6,47,0.00,,,0.00,VWS V13.01,2013-07-23 19:58:00,
2013-07-23 15:03:00,91.6,69.1,29.80,WSW,252,5.4,8.1,48,0.00,,,0.00,VWS V13.01,2013-07-23 20:03:00,
2013-07-23 15:08:00,91.4,68.9,29.80,WSW,242,5.8,6.3,48,0.00,,,0.00,VWS V13.01,2013-07-23 20:08:00,
2013-07-23 15:13:00,91.2,68.8,29.80,WSW,248,7.6,8.7,48,0.00,,,0.00,VWS V13.01,2013-07-23 20:13:00,
2013-07-23 15:18:00,90.8,69.1,29.80,WSW,256,6.7,6.7,49,0.00,,,0.00,VWS V13.01,2013-07-23 20:18:00,
2013-07-23 15:23:00,90.5,69.3,29.80,West,268,6.3,8.3,50,0.00,,,0.00,VWS V13.01,2013-07-23 20:23:00,
2013-07-23 15:29:00,90.1,69.0,29.80,WSW,256,6.3,8.7,50,0.00,,,0.00,VWS V13.01,2013-07-23 20:29:00,
2013-07-23 15:34:00,89.8,69.2,29.80,WSW,247,5.8,6.7,51,0.00,,,0.00,VWS V13.01,2013-07-23 20:34:00,
2013-07-23 15:39:00,89.6,69.1,29.80,WNW,288,3.1,6.3,51,0.00,,,0.00,VWS V13.01,2013-07-23 20:39:00,
2013-07-23 15:44:00,89.4,69.5,29.80,West,270,0.0,2.2,52,0.00,,,0.00,VWS V13.01,2013-07-23 20:44:00,
2013-07-23 15:49:00,89.6,69.6,29.80,West,271,0.0,0.0,52,0.00,,,0.00,VWS V13.01,2013-07-23 20:49:00,
2013-07-23 15:54:00,89.8,71.4,29.80,NW,304,0.0,0.0,55,0.00,,,0.00,VWS V13.01,2013-07-23 20:54:00,
2013-07-23 15:59:00,89.6,71.8,29.78,ENE,65,0.0,0.0,56,0.00,,,0.00,VWS V13.01,2013-07-23 20:59:00,
2013-07-23 16:05:00,88.5,71.8,29.78,ESE,105,0.0,0.0,58,0.00,,,0.00,VWS V13.01,2013-07-23 21:05:00,
2013-07-23 16:10:00,87.4,73.3,29.78,WSW,258,0.0,0.0,63,0.00,,,0.00,VWS V13.01,2013-07-23 21:10:00,
2013-07-23 16:15:00,86.7,74.0,29.78,WNW,291,6.3,6.3,66,0.00,,,0.00,VWS V13.01,2013-07-23 21:15:00,
2013-07-23 16:20:00,85.8,73.6,29.78,NW,305,2.7,5.8,67,0.00,,,0.00,VWS V13.01,2013-07-23 21:20:00,
2013-07-23 16:25:00,85.8,74.9,29.78,NNW,330,4.0,4.0,70,0.00,,,0.00,VWS V13.01,2013-07-23 21:25:00,
2013-07-23 16:31:00,86.3,72.3,29.78,NW,316,5.4,6.3,63,0.00,,,0.00,VWS V13.01,2013-07-23 21:31:00,
2013-07-23 16:36:00,87.1,72.9,29.78,NW,320,3.6,4.9,63,0.00,,,0.00,VWS V13.01,2013-07-23 21:36:00,
2013-07-23 16:42:00,87.6,72.0,29.78,NNW,335,2.7,5.8,60,0.00,,,0.00,VWS V13.01,2013-07-23 21:42:00,
2013-07-23 16:47:00,88.3,71.2,29.75,West,272,2.7,3.6,57,0.00,,,0.00,VWS V13.01,2013-07-23 21:47:00,
2013-07-23 16:52:00,89.2,72.5,29.75,East,99,2.7,2.7,58,0.00,,,0.00,VWS V13.01,2013-07-23 21:52:00,
2013-07-23 16:58:00,89.6,72.3,29.75,NE,39,2.2,2.7,57,0.00,,,0.00,VWS V13.01,2013-07-23 21:58:00,
2013-07-23 17:03:00,89.9,72.2,29.78,East,97,3.6,5.8,56,0.00,,,0.00,VWS V13.01,2013-07-23 22:03:00,
2013-07-23 17:08:00,89.8,72.0,29.78,ESE,106,4.0,5.4,56,0.00,,,0.00,VWS V13.01,2013-07-23 22:08:00,
2013-07-23 17:13:00,89.6,71.3,29.78,NNE,30,2.2,3.1,55,0.00,,,0.00,VWS V13.01,2013-07-23 22:13:00,
2013-07-23 17:18:00,89.8,72.0,29.78,NNE,17,0.0,0.0,56,0.00,,,0.00,VWS V13.01,2013-07-23 22:18:00,
2013-07-23 17:23:00,89.9,72.7,29.78,NNE,25,0.0,2.2,57,0.00,,,0.00,VWS V13.01,2013-07-23 22:23:00,
2013-07-23 17:29:00,90.3,71.9,29.80,ESE,102,3.6,3.6,55,0.00,,,0.00,VWS V13.01,2013-07-23 22:29:00,
2013-07-23 17:34:00,90.5,71.6,29.80,East,96,3.1,5.4,54,0.00,,,0.00,VWS V13.01,2013-07-23 22:34:00,
2013-07-23 17:39:00,90.5,71.6,29.80,ESE,112,4.0,4.9,54,0.00,,,0.00,VWS V13.01,2013-07-23 22:39:00,
2013-07-23 17:44:00,89.2,68.7,29.80,NE,51,8.1,15.4,51,0.00,,,0.00,VWS V13.01,2013-07-23 22:44:00,
2013-07-23 17:49:00,85.8,66.2,29.80,East,101,7.6,8.7,52,0.00,,,0.00,VWS V13.01,2013-07-23 22:49:00,
2013-07-23 17:54:00,84.2,66.3,29.80,East,85,4.0,8.7,55,0.00,,,0.00,VWS V13.01,2013-07-23 22:54:00,
2013-07-23 18:00:00,82.9,66.1,29.80,ESE,107,8.1,8.7,57,0.00,,,0.00,VWS V13.01,2013-07-23 23:00:00,
2013-07-23 18:05:00,82.4,64.6,29.80,ENE,63,13.6,14.5,55,0.00,,,0.00,VWS V13.01,2013-07-23 23:05:00,
2013-07-23 18:10:00,81.7,64.5,29.80,East,83,10.1,10.5,56,0.00,,,0.00,VWS V13.01,2013-07-23 23:10:00,
2013-07-23 18:15:00,81.1,65.0,29.80,ESE,119,5.4,6.3,58,0.00,,,0.00,VWS V13.01,2013-07-23 23:15:00,
2013-07-23 18:20:00,80.8,64.6,29.80,East,98,4.9,15.4,58,0.00,,,0.00,VWS V13.01,2013-07-23 23:20:00,
2013-07-23 18:25:00,80.6,63.5,29.80,South,173,13.2,13.2,56,0.00,,,0.00,VWS V13.01,2013-07-23 23:25:00,
2013-07-23 18:30:00,80.4,63.3,29.80,NE,56,8.1,15.4,56,0.00,,,0.00,VWS V13.01,2013-07-23 23:30:00,
2013-07-23 18:35:00,80.0,63.5,29.80,ESE,108,5.8,5.8,57,0.00,,,0.00,VWS V13.01,2013-07-23 23:35:00,
2013-07-23 18:40:00,79.7,63.6,29.80,ESE,108,3.6,3.6,58,0.00,,,0.00,VWS V13.01,2013-07-23 23:40:00,
2013-07-23 18:46:00,79.3,63.3,29.80,East,94,5.4,6.3,58,0.00,,,0.00,VWS V13.01,2013-07-23 23:46:00,
2013-07-23 18:51:00,79.3,63.8,29.80,SSE,147,5.4,8.1,59,0.00,,,0.00,VWS V13.01,2013-07-23 23:51:00,
2013-07-23 18:56:00,79.1,63.6,29.80,SE,132,3.1,7.6,59,0.00,,,0.00,VWS V13.01,2013-07-23 23:56:00,
2013-07-23 19:01:00,78.8,63.7,29.80,ENE,63,4.0,8.1,60,0.00,,,0.00,VWS V13.01,2013-07-24 00:01:00,
2013-07-23 19:06:00,78.4,63.9,29.80,East,100,3.1,3.1,61,0.00,,,0.00,VWS V13.01,2013-07-24 00:06:00,
2013-07-23 19:12:00,78.1,63.5,29.80,ENE,63,3.6,8.1,61,0.00,,,0.00,VWS V13.01,2013-07-24 00:12:00,
2013-07-23 19:17:00,77.9,63.8,29.80,East,82,4.0,5.4,62,0.00,,,0.00,VWS V13.01,2013-07-24 00:17:00,
2013-07-23 19:23:00,77.5,63.9,29.80,ENE,69,3.6,4.0,63,0.00,,,0.00,VWS V13.01,2013-07-24 00:23:00,
2013-07-23 19:28:00,77.3,63.8,29.80,East,89,3.1,3.1,63,0.00,,,0.00,VWS V13.01,2013-07-24 00:28:00,
2013-07-23 19:33:00,77.0,63.9,29.80,East,83,2.7,2.7,64,0.00,,,0.00,VWS V13.01,2013-07-24 00:33:00,
2013-07-23 19:38:00,76.8,64.2,29.80,East,93,0.0,2.7,65,0.00,,,0.00,VWS V13.01,2013-07-24 00:38:00,
2013-07-23 19:43:00,76.4,64.7,29.80,North,353,3.1,3.1,67,0.00,,,0.00,VWS V13.01,2013-07-24 00:43:00,
2013-07-23 19:48:00,76.4,64.7,29.80,North,354,2.7,3.6,67,0.00,,,0.00,VWS V13.01,2013-07-24 00:48:00,
2013-07-23 19:53:00,76.6,66.1,29.80,North,10,3.1,3.1,70,0.00,,,0.00,VWS V13.01,2013-07-24 00:53:00,
2013-07-23 19:58:00,76.3,64.9,29.80,NNE,21,2.2,5.4,68,0.00,,,0.00,VWS V13.01,2013-07-24 00:58:00,
2013-07-23 20:03:00,76.3,66.2,29.83,SE,132,2.7,4.0,71,0.00,,,0.00,VWS V13.01,2013-07-24 01:03:00,
2013-07-23 20:08:00,75.5,67.8,29.83,West,277,4.9,6.3,77,0.00,,,0.00,VWS V13.01,2013-07-24 01:08:00,
2013-07-23 20:14:00,73.9,68.4,29.86,West,278,8.7,8.7,83,0.04,,,0.04,VWS V13.01,2013-07-24 01:14:00,
2013-07-23 20:19:00,73.7,67.9,29.86,SE,132,3.1,3.1,82,0.24,,,0.24,VWS V13.01,2013-07-24 01:19:00,
2013-07-23 20:24:00,72.8,68.4,29.86,SSE,157,2.2,2.2,86,0.35,,,0.35,VWS V13.01,2013-07-24 01:24:00,
2013-07-23 20:29:00,72.5,68.1,29.83,South,191,2.7,2.7,86,0.35,,,0.35,VWS V13.01,2013-07-24 01:29:00,
2013-07-23 20:34:00,72.1,68.4,29.83,SSW,197,3.1,4.5,88,0.39,,,0.39,VWS V13.01,2013-07-24 01:34:00,
2013-07-23 20:39:00,72.3,69.8,29.83,WSW,255,4.0,4.0,92,0.39,,,0.39,VWS V13.01,2013-07-24 01:39:00,
2013-07-23 20:44:00,72.1,72.1,29.86,NW,316,2.7,2.7,100,0.39,,,0.39,VWS V13.01,2013-07-24 01:44:00,
2013-07-23 20:49:00,71.9,71.9,29.86,NW,306,0.0,0.0,100,0.39,,,0.39,VWS V13.01,2013-07-24 01:49:00,
2013-07-23 20:55:00,71.9,71.9,29.86,NNE,23,2.7,3.1,100,0.39,,,0.39,VWS V13.01,2013-07-24 01:55:00,
2013-07-23 21:01:00,71.9,71.9,29.86,NE,49,5.4,5.4,100,0.39,,,0.39,VWS V13.01,2013-07-24 02:01:00,
2013-07-23 21:06:00,71.8,71.8,29.86,NNE,29,5.8,5.8,100,0.39,,,0.39,VWS V13.01,2013-07-24 02:06:00,
2013-07-23 21:11:00,71.6,71.6,29.86,NNE,31,4.9,7.6,100,0.39,,,0.39,VWS V13.01,2013-07-24 02:11:00,
2013-07-23 21:16:00,71.6,71.6,29.86,NE,43,2.7,5.8,100,0.24,,,0.39,VWS V13.01,2013-07-24 02:16:00,
2013-07-23 21:21:00,71.4,71.4,29.86,NNE,19,3.6,3.6,100,0.08,,,0.39,VWS V13.01,2013-07-24 02:21:00,
2013-07-23 21:26:00,71.4,71.4,29.86,ENE,77,2.7,2.7,100,0.04,,,0.39,VWS V13.01,2013-07-24 02:26:00,
2013-07-23 21:31:00,71.4,71.4,29.86,ENE,70,5.4,5.4,100,0.04,,,0.39,VWS V13.01,2013-07-24 02:31:00,
2013-07-23 21:37:00,71.4,71.4,29.86,SE,131,5.8,5.8,100,0.00,,,0.39,VWS V13.01,2013-07-24 02:37:00,
2013-07-23 21:42:00,71.4,71.1,29.86,ESE,106,7.6,7.6,99,0.00,,,0.39,VWS V13.01,2013-07-24 02:42:00,
2013-07-23 21:47:00,71.4,70.5,29.89,ESE,120,4.9,8.1,97,0.00,,,0.39,VWS V13.01,2013-07-24 02:47:00,
2013-07-23 21:52:00,71.4,70.5,29.89,ENE,76,3.1,3.1,97,0.00,,,0.39,VWS V13.01,2013-07-24 02:52:00,
2013-07-23 21:57:00,71.4,70.5,29.89,ESE,111,5.4,8.1,97,0.00,,,0.39,VWS V13.01,2013-07-24 02:57:00,
2013-07-23 22:02:00,71.2,70.0,29.89,East,97,4.0,4.0,96,0.00,,,0.39,VWS V13.01,2013-07-24 03:02:00,
2013-07-23 22:08:00,71.2,70.0,29.89,East,87,2.2,2.2,96,0.00,,,0.39,VWS V13.01,2013-07-24 03:08:00,
2013-07-23 22:13:00,71.2,69.7,29.89,ESE,109,0.0,0.0,95,0.00,,,0.39,VWS V13.01,2013-07-24 03:13:00,
2013-07-23 22:18:00,71.0,69.5,29.92,ENE,75,0.0,0.0,95,0.00,,,0.39,VWS V13.01,2013-07-24 03:18:00,
2013-07-23 22:23:00,71.0,69.8,29.92,NNE,20,2.7,2.7,96,0.00,,,0.39,VWS V13.01,2013-07-24 03:23:00,
2013-07-23 22:28:00,70.9,70.3,29.92,NE,43,3.6,3.6,98,0.00,,,0.39,VWS V13.01,2013-07-24 03:28:00,
2013-07-23 22:33:00,70.7,70.4,29.92,NE,38,6.3,6.3,99,0.00,,,0.39,VWS V13.01,2013-07-24 03:33:00,
2013-07-23 22:39:00,70.5,69.9,29.92,ENE,69,3.1,3.1,98,0.00,,,0.39,VWS V13.01,2013-07-24 03:39:00,
2013-07-23 22:44:00,70.3,69.7,29.89,East,88,2.7,3.1,98,0.00,,,0.39,VWS V13.01,2013-07-24 03:44:00,
2013-07-23 22:49:00,70.1,69.2,29.89,SSE,167,0.0,0.0,97,0.00,,,0.39,VWS V13.01,2013-07-24 03:49:00,
2013-07-23 22:54:00,70.1,69.2,29.89,SW,230,0.0,0.0,97,0.00,,,0.39,VWS V13.01,2013-07-24 03:54:00,
2013-07-23 22:59:00,70.1,69.2,29.89,WNW,288,0.0,0.0,97,0.00,,,0.39,VWS V13.01,2013-07-24 03:59:00,
2013-07-23 23:01:00,70.1,69.2,29.89,WNW,288,0.0,0.0,97,0.00,,,0.39,VWS V13.01,2013-07-24 04:01:00,
2013-07-23 23:06:00,70.0,69.1,29.89,WNW,288,0.0,0.0,97,0.00,,,0.39,VWS V13.01,2013-07-24 04:06:00,
2013-07-23 23:11:00,70.1,69.8,29.89,North,354,0.0,0.0,99,0.00,,,0.39,VWS V13.01,2013-07-24 04:11:00,
2013-07-23 23:16:00,70.0,69.7,29.92,SE,127,3.1,3.1,99,0.00,,,0.39,VWS V13.01,2013-07-24 04:16:00,
2013-07-23 23:21:00,69.8,69.5,29.92,East,83,2.2,3.1,99,0.00,,,0.39,VWS V13.01,2013-07-24 04:21:00,
2013-07-23 23:26:00,69.8,69.8,29.92,NW,321,4.0,4.0,100,0.00,,,0.39,VWS V13.01,2013-07-24 04:26:00,
2013-07-23 23:31:00,69.6,69.6,29.92,NNE,12,3.6,3.6,100,0.00,,,0.39,VWS V13.01,2013-07-24 04:31:00,
2013-07-23 23:36:00,69.4,69.4,29.92,NNE,31,0.0,0.0,100,0.00,,,0.39,VWS V13.01,2013-07-24 04:36:00,
2013-07-23 23:41:00,69.4,69.4,29.92,North,356,0.0,0.0,100,0.00,,,0.39,VWS V13.01,2013-07-24 04:41:00,
2013-07-23 23:46:00,69.4,69.4,29.89,SSE,150,0.0,0.0,100,0.00,,,0.39,VWS V13.01,2013-07-24 04:46:00,
2013-07-23 23:51:00,69.4,69.4,29.89,South,178,0.0,0.0,100,0.00,,,0.39,VWS V13.01,2013-07-24 04:51:00,
2013-07-23 23:56:00,69.4,69.4,29.89,South,178,0.0,0.0,100,0.00,,,0.39,VWS V13.01,2013-07-24 04:56:00,